createdAt,value
2022-10-30T00:06:34.877Z,23.6
2022-10-30T00:08:36.673Z,17.7
2022-10-30T00:10:38.466Z,10.9
2022-10-30T00:12:40.271Z,20.6
2022-10-30T00:14:45.553Z,17.7
2022-10-30T00:16:47.338Z,16.5
2022-10-30T00:18:49.133Z,27.7
2022-10-30T00:19:52.358Z,13.9
2022-10-30T00:23:55.423Z,8.2
2022-10-30T00:25:57.163Z,26.4
2022-10-30T00:28:02.447Z,15
2022-10-30T00:30:04.243Z,32.3
2022-10-30T00:32:06.020Z,17.6
2022-10-30T00:34:07.835Z,16.7
2022-10-30T00:36:09.605Z,12.1
2022-10-30T00:38:11.403Z,12.2
2022-10-30T00:40:13.192Z,11.3
2022-10-30T00:42:18.484Z,10.2
2022-10-30T00:44:20.286Z,16.1
2022-10-30T00:46:22.072Z,14.5
2022-10-30T00:48:23.882Z,13.6
2022-10-30T00:52:27.482Z,11.3
2022-10-30T00:54:29.298Z,20.2
2022-10-30T00:56:34.570Z,25.4
2022-10-30T00:58:36.372Z,16.6
2022-10-30T01:00:38.159Z,34.7
2022-10-30T01:02:40.086Z,15.5
2022-10-30T01:04:41.772Z,14.1
2022-10-30T01:06:43.534Z,20.2
2022-10-30T01:08:45.419Z,13.9
2022-10-30T01:12:52.371Z,21.7
2022-10-30T01:14:54.181Z,11.4
2022-10-30T01:17:18.279Z,14.3
2022-10-30T01:19:20.204Z,18.6
2022-10-30T01:21:21.943Z,18.9
2022-10-30T01:23:27.194Z,31.5
2022-10-30T01:25:28.973Z,10.1
2022-10-30T01:27:30.770Z,20.3
2022-10-30T01:29:32.540Z,18.2
2022-10-30T01:33:36.122Z,20.6
2022-10-30T01:35:37.927Z,15.6
2022-10-30T01:41:46.758Z,21.9
2022-10-30T01:49:53.910Z,35.7
2022-10-30T01:51:59.171Z,21.8
2022-10-30T01:54:00.949Z,20.1
2022-10-30T01:56:02.769Z,28.2
2022-10-30T01:58:04.594Z,19.5
2022-10-30T02:00:06.377Z,23.2
2022-10-30T02:02:08.268Z,13.4
2022-10-30T02:04:09.959Z,17.5
2022-10-30T02:06:15.234Z,19
2022-10-30T02:08:17.043Z,34
2022-10-30T02:10:18.824Z,15.1
2022-10-30T02:17:26.784Z,42.3
2022-10-30T02:19:32.127Z,38
2022-10-30T02:21:33.842Z,46
2022-10-30T02:23:35.651Z,41.4
2022-10-30T02:27:39.223Z,19.4
2022-10-30T02:29:40.996Z,22
2022-10-30T02:31:42.787Z,26.3
2022-10-30T02:33:48.043Z,24
2022-10-30T02:37:51.636Z,39.4
2022-10-30T02:41:55.163Z,30.2
2022-10-30T02:43:56.932Z,27.3
2022-10-30T02:45:58.725Z,33.5
2022-10-30T02:52:07.561Z,31.4
2022-10-30T02:54:09.335Z,29.1
2022-10-30T02:58:12.930Z,28.5
2022-10-30T03:00:14.702Z,29.3
2022-10-30T03:06:23.560Z,25.7
2022-10-30T03:07:26.184Z,33.9
2022-10-30T03:09:27.977Z,22.7
2022-10-30T03:11:29.765Z,24.9
2022-10-30T03:13:31.570Z,28.7
2022-10-30T03:15:36.835Z,38.2
2022-10-30T03:17:38.697Z,34.4
2022-10-30T03:19:40.397Z,27.6
2022-10-30T03:21:42.195Z,28.6
2022-10-30T03:23:43.984Z,33.3
2022-10-30T03:25:45.773Z,26.7
2022-10-30T03:31:54.613Z,43.7
2022-10-30T03:33:56.406Z,32.9
2022-10-30T03:50:14.199Z,46.3
2022-10-30T03:52:15.982Z,39.5
2022-10-30T03:58:24.815Z,35
2022-10-30T04:00:26.592Z,28.2
2022-10-30T04:03:31.020Z,53.5
2022-10-30T04:05:32.814Z,50.9
2022-10-30T04:07:34.603Z,48.7
2022-10-30T04:09:36.403Z,42
2022-10-30T04:11:41.680Z,45.8
2022-10-30T04:13:43.514Z,27.9
2022-10-30T04:15:45.244Z,35.3
2022-10-30T04:17:46.999Z,38.4
2022-10-30T04:21:50.540Z,39.7
2022-10-30T04:23:52.312Z,39.3
2022-10-30T04:25:57.618Z,44.6
2022-10-30T04:27:59.908Z,38.5
2022-10-30T04:30:01.306Z,46.7
2022-10-30T04:32:02.939Z,29.1
2022-10-30T04:34:04.726Z,44.5
2022-10-30T04:36:06.484Z,40.5
2022-10-30T04:38:08.273Z,54.2
2022-10-30T04:40:13.543Z,50
2022-10-30T04:44:17.080Z,42
2022-10-30T04:46:18.864Z,33.1
2022-10-30T04:54:29.464Z,64.3
2022-10-30T05:01:02.026Z,46.8
2022-10-30T05:02:58.703Z,33.3
2022-10-30T05:05:00.461Z,49.3
2022-10-30T05:11:09.195Z,53.5
2022-10-30T05:13:10.993Z,55.6
2022-10-30T05:17:14.499Z,53.6
2022-10-30T05:19:16.290Z,46.4
2022-10-30T05:21:21.568Z,62.3
2022-10-30T05:23:23.319Z,50.9
2022-10-30T05:25:25.094Z,48.8
2022-10-30T05:27:28.546Z,54.7
2022-10-30T05:29:30.274Z,58.1
2022-10-30T05:31:32.059Z,61.3
2022-10-30T05:33:33.795Z,54.2
2022-10-30T05:35:39.052Z,48.8
2022-10-30T05:37:40.836Z,66
2022-10-30T05:39:42.603Z,41.5
2022-10-30T05:41:44.370Z,44.5
2022-10-30T05:43:46.160Z,47.8
2022-10-30T05:45:47.927Z,60.2
2022-10-30T05:47:49.687Z,51.2
2022-10-30T05:49:54.932Z,45.1
2022-10-30T05:53:58.449Z,43.6
2022-10-30T05:55:01.057Z,53.6
2022-10-30T05:57:02.835Z,47.3
2022-10-30T05:59:04.597Z,63.6
2022-10-30T06:03:11.659Z,54.8
2022-10-30T06:05:13.378Z,55.7
2022-10-30T06:07:15.150Z,54
2022-10-30T06:09:16.932Z,59.9
2022-10-30T06:11:18.694Z,60.8
2022-10-30T06:13:20.460Z,63
2022-10-30T06:15:22.236Z,64.9
2022-10-30T06:17:27.490Z,64.5
2022-10-30T06:19:29.251Z,63.2
2022-10-30T06:21:30.990Z,53.3
2022-10-30T06:23:32.748Z,67.5
2022-10-30T06:25:40.398Z,63.4
2022-10-30T06:27:36.331Z,76.1
2022-10-30T06:29:38.098Z,55.7
2022-10-30T06:31:43.358Z,61.6
2022-10-30T06:33:45.124Z,52.5
2022-10-30T06:35:46.890Z,68
2022-10-30T06:37:48.664Z,61
2022-10-30T06:43:53.966Z,57.5
2022-10-30T06:45:59.233Z,60.6
2022-10-30T06:48:01.234Z,73.3
2022-10-30T06:50:02.824Z,68.9
2022-10-30T06:53:07.106Z,62.7
2022-10-30T06:59:16.608Z,78.2
2022-10-30T07:07:23.647Z,68.2
2022-10-30T07:09:25.389Z,68.6
2022-10-30T07:11:27.145Z,68.2
2022-10-30T07:13:32.369Z,73.7
2022-10-30T07:17:35.861Z,82.2
2022-10-30T07:19:37.617Z,91.2
2022-10-30T07:21:39.372Z,90.9
2022-10-30T07:23:41.127Z,93
2022-10-30T07:25:42.872Z,75.6
2022-10-30T07:27:48.174Z,79.5
2022-10-30T07:29:49.938Z,80.8
2022-10-30T07:32:02.131Z,75.3
2022-10-30T07:33:53.496Z,84.2
2022-10-30T07:35:55.277Z,87.4
2022-10-30T07:37:57.060Z,99.7
2022-10-30T07:39:58.818Z,82.8
2022-10-30T07:42:04.083Z,89.3
2022-10-30T07:44:05.854Z,89.4
2022-10-30T07:46:07.645Z,77.6
2022-10-30T07:49:12.076Z,77.3
2022-10-30T07:51:13.824Z,73.6
2022-10-30T07:53:15.606Z,72
2022-10-30T07:55:20.863Z,85
2022-10-30T07:57:22.642Z,75.9
2022-10-30T07:59:24.421Z,71.8
2022-10-30T08:01:26.432Z,76.6
2022-10-30T08:03:28.008Z,66
2022-10-30T08:05:30.418Z,67.6
2022-10-30T08:07:31.598Z,71.2
2022-10-30T08:09:36.866Z,92.7
2022-10-30T08:13:40.449Z,76.9
2022-10-30T08:17:44.040Z,79.1
2022-10-30T08:19:45.825Z,91.9
2022-10-30T08:21:47.612Z,87.3
2022-10-30T08:32:00.033Z,95.8
2022-10-30T08:36:03.613Z,90.9
2022-10-30T08:38:08.928Z,80
2022-10-30T08:44:34.039Z,93.4
2022-10-30T08:46:35.827Z,99.7
2022-10-30T08:48:37.603Z,83.7
2022-10-30T08:50:42.865Z,88.1
2022-10-30T08:52:44.692Z,91.9
2022-10-30T08:56:48.286Z,87.9
2022-10-30T08:58:50.099Z,86.3
2022-10-30T09:00:54.817Z,98.3
2022-10-30T09:02:53.669Z,95.4
2022-10-30T09:04:58.975Z,91.6
2022-10-30T09:07:00.742Z,88
2022-10-30T09:09:02.529Z,104.1
2022-10-30T09:11:04.321Z,86.9
2022-10-30T09:13:06.087Z,81.3
2022-10-30T09:15:07.891Z,99.6
2022-10-30T09:17:09.683Z,80.3
2022-10-30T09:19:18.713Z,64.1
2022-10-30T09:21:16.777Z,65
2022-10-30T09:23:18.568Z,68
2022-10-30T09:25:20.383Z,67.6
2022-10-30T09:27:22.172Z,52.4
2022-10-30T09:29:23.998Z,51
2022-10-30T09:31:25.807Z,52
2022-10-30T09:33:31.098Z,39.3
2022-10-30T09:35:32.913Z,40.2
2022-10-30T09:37:34.717Z,27.5
2022-10-30T09:44:45.846Z,24.3
2022-10-30T09:46:48.057Z,15.7
2022-10-30T09:48:49.903Z,19
2022-10-30T09:52:53.558Z,27.3
2022-10-30T09:58:58.899Z,14.9
2022-10-30T10:01:07.152Z,29
2022-10-30T10:07:09.626Z,18.9
2022-10-30T10:09:11.471Z,19.2
2022-10-30T10:11:13.256Z,17.9
2022-10-30T10:13:15.070Z,14.5
2022-10-30T10:15:20.345Z,25
2022-10-30T10:17:22.170Z,13.2
2022-10-30T10:19:23.980Z,27.5
2022-10-30T10:21:25.768Z,15.4
2022-10-30T10:23:27.566Z,16.1
2022-10-30T10:25:29.390Z,16.3
2022-10-30T10:27:31.196Z,16.5
2022-10-30T10:31:38.306Z,54.4
2022-10-30T10:33:40.110Z,19.8
2022-10-30T10:34:42.752Z,27.7
2022-10-30T10:36:44.537Z,26
2022-10-30T10:38:46.384Z,14.9
2022-10-30T10:40:48.158Z,34.7
2022-10-30T10:42:53.494Z,25.6
2022-10-30T10:44:55.292Z,12.3
2022-10-30T10:46:57.076Z,10.9
2022-10-30T10:48:58.900Z,9.7
2022-10-30T10:51:00.688Z,22.6
2022-10-30T10:55:04.314Z,17.2
2022-10-30T10:57:09.622Z,25.4
2022-10-30T10:59:11.416Z,15.9
2022-10-30T11:01:13.532Z,11.6
2022-10-30T11:05:16.840Z,9
2022-10-30T11:07:18.634Z,17.1
2022-10-30T11:09:20.435Z,13.2
2022-10-30T11:11:25.724Z,11.6
2022-10-30T11:13:27.506Z,16
2022-10-30T11:15:29.391Z,12
2022-10-30T11:17:31.142Z,18.7
2022-10-30T11:19:34.567Z,18.9
2022-10-30T11:21:36.308Z,11.8
2022-10-30T11:23:38.082Z,20
2022-10-30T11:25:43.377Z,12.9
2022-10-30T11:27:45.187Z,14.1
2022-10-30T11:29:46.996Z,16.2
2022-10-30T11:30:49.623Z,15
2022-10-30T11:32:51.953Z,11.4
2022-10-30T11:34:53.183Z,14.9
2022-10-30T11:36:54.959Z,12.6
2022-10-30T11:39:00.270Z,9.7
2022-10-30T11:41:02.031Z,12.5
2022-10-30T11:43:03.826Z,7.4
2022-10-30T11:45:05.639Z,13.9
2022-10-30T11:47:07.370Z,12.1
2022-10-30T11:51:10.990Z,11.8
2022-10-30T11:53:16.202Z,24.3
2022-10-30T11:55:17.968Z,21.1
2022-10-30T11:57:19.754Z,16.3
2022-10-30T11:59:21.556Z,21.7
2022-10-30T12:01:23.391Z,18.5
2022-10-30T12:03:25.071Z,15.7
2022-10-30T12:05:26.876Z,28.8
2022-10-30T12:09:33.910Z,17.2
2022-10-30T12:11:35.697Z,13.4
2022-10-30T12:13:37.454Z,14.1
2022-10-30T12:15:39.227Z,7.5
2022-10-30T12:23:49.820Z,18
2022-10-30T12:28:09.582Z,15.7
2022-10-30T12:30:11.291Z,10.1
2022-10-30T12:32:13.087Z,20.1
2022-10-30T12:34:18.357Z,16
2022-10-30T12:36:20.159Z,16.9
2022-10-30T12:38:21.905Z,7.4
2022-10-30T12:40:23.671Z,24.4
2022-10-30T12:50:36.081Z,5.9
2022-10-30T12:52:37.854Z,11.2
2022-10-30T12:54:39.640Z,5.9
2022-10-30T12:58:43.215Z,5.9
2022-10-30T13:00:44.995Z,12
2022-10-30T13:02:50.256Z,14.2
2022-10-30T13:04:52.032Z,16.2
2022-10-30T13:06:53.834Z,25.3
2022-10-30T13:08:55.595Z,17.8
2022-10-30T13:10:57.390Z,8
2022-10-30T13:12:59.175Z,21.9
2022-10-30T13:15:00.966Z,14.3
2022-10-30T13:17:06.224Z,14.9
2022-10-30T13:19:07.992Z,11.9
2022-10-30T13:21:09.801Z,16.9
2022-10-30T13:22:12.442Z,9.2
2022-10-30T13:24:14.226Z,15.2
2022-10-30T13:26:16.018Z,31.5
2022-10-30T13:28:17.827Z,7.4
2022-10-30T13:30:23.115Z,29.6
2022-10-30T13:32:24.896Z,18.8
2022-10-30T13:34:26.702Z,56.3
2022-10-30T13:36:28.480Z,13
2022-10-30T13:38:30.276Z,19.3
2022-10-30T13:40:32.083Z,10.2
2022-10-30T13:42:33.874Z,14.8
2022-10-30T13:44:39.153Z,7
2022-10-30T13:46:40.956Z,9.8
2022-10-30T13:48:42.745Z,5.5
2022-10-30T13:50:44.512Z,20.6
2022-10-30T13:52:46.446Z,13.7
2022-10-30T13:54:48.125Z,14.1
2022-10-30T13:56:49.928Z,37.8
2022-10-30T13:58:55.229Z,7.5
2022-10-30T14:00:57.067Z,14.7
2022-10-30T14:02:59.183Z,16.4
2022-10-30T14:05:00.599Z,16.1
2022-10-30T14:07:02.407Z,17.4
2022-10-30T14:09:04.207Z,23.3
2022-10-30T14:11:05.999Z,21.8
2022-10-30T14:13:11.269Z,10.1
2022-10-30T14:15:13.059Z,13.8
2022-10-30T14:17:14.894Z,14.5
2022-10-30T14:24:22.961Z,7.6
2022-10-30T14:28:29.983Z,16.3
2022-10-30T14:32:33.582Z,16
2022-10-30T14:34:35.376Z,19.5
2022-10-30T14:36:37.235Z,22
2022-10-30T14:38:38.999Z,20.6
2022-10-30T14:40:44.293Z,13.7
2022-10-30T14:42:46.091Z,16.7
2022-10-30T14:44:47.866Z,15.8
2022-10-30T14:46:49.695Z,11.6
2022-10-30T14:48:51.498Z,17
2022-10-30T14:50:53.301Z,8.4
2022-10-30T14:52:55.099Z,10.3
2022-10-30T14:55:00.404Z,12.3
2022-10-30T14:57:02.214Z,11.1
2022-10-30T15:01:05.970Z,12.9
2022-10-30T15:03:07.694Z,16.2
2022-10-30T15:05:09.920Z,8.4
2022-10-30T15:07:11.347Z,14.6
2022-10-30T15:09:16.630Z,19.6
2022-10-30T15:11:18.451Z,28.1
2022-10-30T15:13:20.295Z,20.4
2022-10-30T15:14:39.932Z,18.1
2022-10-30T15:16:24.742Z,14.3
2022-10-30T15:22:33.655Z,17.9
2022-10-30T15:24:35.484Z,29.8
2022-10-30T15:30:43.387Z,19
2022-10-30T15:32:42.719Z,15.3
2022-10-30T15:34:44.555Z,15.3
2022-10-30T15:38:51.698Z,20.9
2022-10-30T15:40:53.477Z,36.9
2022-10-30T15:42:55.290Z,25.2
2022-10-30T15:44:57.101Z,10.2
2022-10-30T15:49:00.730Z,15
2022-10-30T15:51:06.054Z,21.4
2022-10-30T15:53:07.859Z,24
2022-10-30T15:57:49.530Z,16.6
2022-10-30T15:59:13.296Z,11.5
2022-10-30T16:01:15.315Z,9.7
2022-10-30T16:05:22.204Z,18.6
2022-10-30T16:07:24.024Z,21.7
2022-10-30T16:11:49.514Z,18.5
2022-10-30T16:13:51.336Z,16
2022-10-30T16:15:53.148Z,15.1
2022-10-30T16:17:58.837Z,15.5
2022-10-30T16:20:00.264Z,22.4
2022-10-30T16:22:02.067Z,21.7
2022-10-30T16:24:03.883Z,23.5
2022-10-30T16:26:05.691Z,23.9
2022-10-30T16:36:18.239Z,38.3
2022-10-30T16:40:21.871Z,21.9
2022-10-30T16:42:23.706Z,26.4
2022-10-30T16:44:25.518Z,38.8
2022-10-30T16:46:30.810Z,27.2
2022-10-30T16:48:32.629Z,35
2022-10-30T16:50:34.462Z,33.5
2022-10-30T16:52:36.263Z,32
2022-10-30T16:54:38.034Z,22.1
2022-10-30T16:56:42.182Z,21.1
2022-10-30T16:58:41.657Z,21.4
2022-10-30T17:00:47.050Z,27.4
2022-10-30T17:02:48.779Z,21.9
2022-10-30T17:04:53.855Z,42.1
2022-10-30T17:07:55.063Z,21.4
2022-10-30T17:09:58.753Z,25.9
2022-10-30T17:12:00.306Z,25.7
2022-10-30T17:14:05.621Z,33
2022-10-30T17:16:07.420Z,26.7
2022-10-30T17:18:09.217Z,17.2
2022-10-30T17:24:14.759Z,23.1
2022-10-30T17:26:16.510Z,22.7
2022-10-30T17:28:21.808Z,17.2
2022-10-30T17:30:23.644Z,22.6
2022-10-30T17:32:25.445Z,24.8
2022-10-30T17:34:27.247Z,35.4
2022-10-30T17:36:29.113Z,26.9
2022-10-30T17:38:30.928Z,42.3
2022-10-30T17:40:32.722Z,33.5
2022-10-30T17:42:38.028Z,35.7
2022-10-30T17:44:39.819Z,18.5
2022-10-30T17:46:41.644Z,35.5
2022-10-30T17:48:43.442Z,31.1
2022-10-30T17:50:45.239Z,27.2
2022-10-30T17:52:47.053Z,18.6
2022-10-30T17:54:48.889Z,26.1
2022-10-30T17:56:54.137Z,27.8
2022-10-30T17:58:55.968Z,26.3
2022-10-30T18:00:57.844Z,35.3
2022-10-30T18:04:02.243Z,36.2
2022-10-30T18:06:04.078Z,31.3
2022-10-30T18:08:05.883Z,44.3
2022-10-30T18:12:12.989Z,32.8
2022-10-30T18:14:14.798Z,27.9
2022-10-30T18:16:16.607Z,33.9
2022-10-30T18:18:18.422Z,16.8
2022-10-30T18:20:20.223Z,44.1
2022-10-30T18:22:22.034Z,27.1
2022-10-30T18:32:34.565Z,34.1
2022-10-30T18:34:36.352Z,45.5
2022-10-30T18:36:38.204Z,21.7
2022-10-30T18:40:45.297Z,22
2022-10-30T18:42:47.118Z,32
2022-10-30T18:44:48.927Z,35.1
2022-10-30T18:46:50.714Z,27.4
2022-10-30T18:48:52.524Z,21.8
2022-10-30T18:50:54.321Z,21.1
2022-10-30T18:52:59.620Z,19.3
2022-10-30T18:55:01.429Z,18.6
2022-10-30T18:57:03.195Z,19.6
2022-10-30T18:58:05.843Z,21.9
2022-10-30T19:00:07.661Z,23.2
2022-10-30T19:02:09.603Z,16.8
2022-10-30T19:04:11.282Z,18.3
2022-10-30T19:08:18.381Z,16.9
2022-10-30T19:10:20.173Z,22.3
2022-10-30T19:12:21.998Z,22.5
2022-10-30T19:14:23.781Z,18.2
2022-10-30T19:16:25.805Z,13.8
2022-10-30T19:18:27.373Z,23.3
2022-10-30T19:20:50.583Z,10.7
2022-10-30T19:22:34.477Z,9.5
2022-10-30T19:24:36.289Z,13.3
2022-10-30T19:26:38.084Z,15.5
2022-10-30T19:28:39.870Z,18.7
2022-10-30T19:30:41.711Z,9
2022-10-30T19:32:43.513Z,19.6
2022-10-30T19:34:48.833Z,21.2
2022-10-30T19:36:50.634Z,27.9
2022-10-30T19:38:52.453Z,24.2
2022-10-30T19:40:54.223Z,24.3
2022-10-30T19:46:59.637Z,38.9
2022-10-30T19:49:04.904Z,18.2
2022-10-30T19:51:06.710Z,30.5
2022-10-30T19:53:08.526Z,32.1
2022-10-30T19:57:33.659Z,28.8
2022-10-30T19:59:35.452Z,115.7
2022-10-30T20:03:42.588Z,33
2022-10-30T20:07:46.133Z,42.1
2022-10-30T20:09:47.899Z,75
2022-10-30T20:11:49.720Z,53.2
2022-10-30T20:15:56.858Z,27.9
2022-10-30T20:17:58.932Z,24.7
2022-10-30T20:20:00.400Z,35.5
2022-10-30T20:22:02.210Z,34
2022-10-30T20:24:04.013Z,36
2022-10-30T20:28:07.613Z,38.7
2022-10-30T20:30:12.900Z,28.8
2022-10-30T20:32:14.687Z,28.6
2022-10-30T20:34:16.480Z,42.7
2022-10-30T20:36:18.275Z,29.4
2022-10-30T20:38:20.069Z,29.9
2022-10-30T20:40:21.857Z,39.8
2022-10-30T20:42:23.645Z,32.5
2022-10-30T20:44:28.943Z,24.6
2022-10-30T20:46:30.738Z,21.4
2022-10-30T20:48:32.513Z,35.8
2022-10-30T20:49:35.160Z,45
2022-10-30T20:51:36.943Z,40.7
2022-10-30T20:53:38.751Z,27.5
2022-10-30T20:55:40.725Z,37.4
2022-10-30T20:57:45.879Z,26.8
2022-10-30T20:59:47.654Z,30.9
2022-10-30T21:01:49.562Z,24.2
2022-10-30T21:03:51.257Z,24
2022-10-30T21:05:53.033Z,19.5
2022-10-30T21:07:54.832Z,31.4
2022-10-30T21:09:56.636Z,48.8
2022-10-30T21:12:01.928Z,25.2
2022-10-30T21:14:03.727Z,43.6
2022-10-30T21:16:05.530Z,32.7
2022-10-30T21:18:07.311Z,24.3
2022-10-30T21:20:09.124Z,32.2
2022-10-30T21:22:10.915Z,23
2022-10-30T21:24:12.716Z,30
2022-10-30T21:26:17.995Z,28.4
2022-10-30T21:28:19.787Z,24.8
2022-10-30T21:30:21.562Z,26.5
2022-10-30T21:32:23.385Z,27.9
2022-10-30T21:34:25.168Z,35.5
2022-10-30T21:36:26.969Z,24.2
2022-10-30T21:38:28.739Z,32.2
2022-10-30T21:40:34.001Z,23.3
2022-10-30T21:42:35.819Z,23.3
2022-10-30T21:44:37.605Z,34.5
2022-10-30T21:45:40.775Z,21.8
2022-10-30T21:47:42.567Z,30.1
2022-10-30T21:49:44.354Z,29.6
2022-10-30T21:51:46.163Z,19.6
2022-10-30T21:53:51.472Z,33.6
2022-10-30T21:57:55.046Z,23.8
2022-10-30T22:01:58.687Z,33.2
2022-10-30T22:04:00.435Z,31.9
2022-10-30T22:06:02.253Z,30.4
2022-10-30T22:08:07.556Z,37
2022-10-30T22:10:09.348Z,39.1
2022-10-30T22:16:14.745Z,24.1
2022-10-30T22:18:16.564Z,31
2022-10-30T22:20:18.353Z,34.6
2022-10-30T22:22:23.649Z,20.4
2022-10-30T22:24:25.441Z,33.7
2022-10-30T22:26:27.238Z,36.4
2022-10-30T22:28:29.047Z,29.2
2022-10-30T22:30:30.838Z,18.9
2022-10-30T22:32:32.632Z,31
2022-10-30T22:34:34.419Z,22.5
2022-10-30T22:36:39.705Z,28.3
2022-10-30T22:41:45.971Z,19.4
2022-10-30T22:43:47.752Z,17.4
2022-10-30T22:49:56.625Z,29.6
2022-10-30T22:51:58.423Z,31.7
2022-10-30T22:54:00.241Z,21.1
2022-10-30T22:56:02.017Z,21.5
2022-10-30T22:58:04.240Z,17.5
2022-10-30T23:00:05.599Z,30.3
2022-10-30T23:02:09.093Z,28.2
2022-10-30T23:04:14.310Z,18.3
2022-10-30T23:06:16.101Z,15.8
2022-10-30T23:08:17.902Z,23
2022-10-30T23:10:19.694Z,17
2022-10-30T23:12:21.475Z,28.6
2022-10-30T23:14:23.272Z,20.8
2022-10-30T23:16:25.064Z,18.7
2022-10-30T23:18:30.366Z,26.9
2022-10-30T23:20:32.117Z,22.7
2022-10-30T23:22:33.910Z,33.3
2022-10-30T23:24:35.696Z,20.5
2022-10-30T23:26:37.474Z,23
2022-10-30T23:28:39.260Z,30.5
2022-10-30T23:30:41.050Z,22
2022-10-30T23:32:46.331Z,21.9
2022-10-30T23:34:48.095Z,22
2022-10-30T23:36:49.899Z,17
2022-10-30T23:39:12.234Z,16.4
2022-10-30T23:41:14.029Z,27
2022-10-30T23:45:21.075Z,12.6
2022-10-30T23:47:22.869Z,20
2022-10-30T23:49:24.636Z,22.7
2022-10-30T23:51:26.401Z,13.8
2022-10-30T23:53:28.178Z,15.9
2022-10-30T23:55:29.937Z,16.6
2022-10-30T23:57:31.719Z,20.6
2022-10-30T23:59:36.976Z,28.1
